sensor_id;sensor_type;location;lat;lon;timestamp;P1;durP1;ratioP1;P2;durP2;ratioP2
51296;SDS011;37380;45.186;9.792;2023-06-10T00:01:26;22.02;;;18.45;;
51296;SDS011;37380;45.186;9.792;2023-06-10T00:04:23;16.80;;;15.13;;
51296;SDS011;37380;45.186;9.792;2023-06-10T00:06:50;17.38;;;15.77;;
51296;SDS011;37380;45.186;9.792;2023-06-10T00:09:17;16.25;;;14.75;;
51296;SDS011;37380;45.186;9.792;2023-06-10T00:11:45;15.88;;;14.27;;
51296;SDS011;37380;45.186;9.792;2023-06-10T00:14:12;15.73;;;14.15;;
51296;SDS011;37380;45.186;9.792;2023-06-10T00:16:39;16.20;;;14.68;;
51296;SDS011;37380;45.186;9.792;2023-06-10T00:19:06;20.90;;;13.68;;
51296;SDS011;37380;45.186;9.792;2023-06-10T00:21:34;17.67;;;14.70;;
51296;SDS011;37380;45.186;9.792;2023-06-10T00:24:04;22.05;;;12.30;;
51296;SDS011;37380;45.186;9.792;2023-06-10T00:26:39;15.60;;;10.90;;
51296;SDS011;37380;45.186;9.792;2023-06-10T00:29:07;13.02;;;11.38;;
51296;SDS011;37380;45.186;9.792;2023-06-10T00:31:36;18.13;;;10.60;;
51296;SDS011;37380;45.186;9.792;2023-06-10T00:34:08;13.70;;;11.27;;
51296;SDS011;37380;45.186;9.792;2023-06-10T00:36:37;16.58;;;9.38;;
51296;SDS011;37380;45.186;9.792;2023-06-10T00:39:04;10.57;;;9.48;;
51296;SDS011;37380;45.186;9.792;2023-06-10T00:41:31;11.15;;;10.15;;
51296;SDS011;37380;45.186;9.792;2023-06-10T00:44:07;10.27;;;8.95;;
51296;SDS011;37380;45.186;9.792;2023-06-10T00:47:08;15.15;;;9.20;;
51296;SDS011;37380;45.186;9.792;2023-06-10T00:50:09;13.40;;;9.27;;
51296;SDS011;37380;45.186;9.792;2023-06-10T00:53:03;19.73;;;8.88;;
51296;SDS011;37380;45.186;9.792;2023-06-10T00:55:30;9.85;;;8.55;;
51296;SDS011;37380;45.186;9.792;2023-06-10T00:57:59;11.65;;;8.02;;
51296;SDS011;37380;45.186;9.792;2023-06-10T01:00:33;11.52;;;7.43;;
51296;SDS011;37380;45.186;9.792;2023-06-10T01:03:27;11.57;;;8.00;;
51296;SDS011;37380;45.186;9.792;2023-06-10T01:06:03;19.35;;;8.82;;
51296;SDS011;37380;45.186;9.792;2023-06-10T01:08:57;8.52;;;7.40;;
51296;SDS011;37380;45.186;9.792;2023-06-10T01:11:44;10.57;;;6.82;;
51296;SDS011;37380;45.186;9.792;2023-06-10T01:14:15;17.65;;;8.88;;
51296;SDS011;37380;45.186;9.792;2023-06-10T01:16:50;9.60;;;6.25;;
51296;SDS011;37380;45.186;9.792;2023-06-10T01:19:52;15.18;;;7.05;;
51296;SDS011;37380;45.186;9.792;2023-06-10T01:22:23;18.55;;;8.35;;
51296;SDS011;37380;45.186;9.792;2023-06-10T01:24:52;17.10;;;7.22;;
51296;SDS011;37380;45.186;9.792;2023-06-10T01:27:19;7.63;;;6.53;;
51296;SDS011;37380;45.186;9.792;2023-06-10T01:29:54;15.15;;;7.88;;
51296;SDS011;37380;45.186;9.792;2023-06-10T01:32:36;8.63;;;6.78;;
51296;SDS011;37380;45.186;9.792;2023-06-10T01:35:06;15.68;;;7.95;;
51296;SDS011;37380;45.186;9.792;2023-06-10T01:37:37;10.40;;;6.65;;
51296;SDS011;37380;45.186;9.792;2023-06-10T01:40:06;10.38;;;6.65;;
51296;SDS011;37380;45.186;9.792;2023-06-10T01:42:34;14.60;;;6.25;;
51296;SDS011;37380;45.186;9.792;2023-06-10T01:45:09;6.50;;;5.32;;
51296;SDS011;37380;45.186;9.792;2023-06-10T01:48:04;15.73;;;7.75;;
51296;SDS011;37380;45.186;9.792;2023-06-10T01:50:38;11.23;;;7.57;;
51296;SDS011;37380;45.186;9.792;2023-06-10T01:53:39;7.78;;;6.90;;
51296;SDS011;37380;45.186;9.792;2023-06-10T01:56:33;12.57;;;7.35;;
51296;SDS011;37380;45.186;9.792;2023-06-10T01:59:01;15.90;;;7.72;;
51296;SDS011;37380;45.186;9.792;2023-06-10T02:01:28;12.05;;;8.90;;
51296;SDS011;37380;45.186;9.792;2023-06-10T02:03:55;11.32;;;7.78;;
51296;SDS011;37380;45.186;9.792;2023-06-10T02:06:23;9.60;;;7.32;;
51296;SDS011;37380;45.186;9.792;2023-06-10T02:08:50;15.07;;;9.05;;
51296;SDS011;37380;45.186;9.792;2023-06-10T02:11:17;19.73;;;9.07;;
51296;SDS011;37380;45.186;9.792;2023-06-10T02:13:44;14.70;;;8.80;;
51296;SDS011;37380;45.186;9.792;2023-06-10T02:16:11;14.60;;;9.05;;
51296;SDS011;37380;45.186;9.792;2023-06-10T02:18:39;9.60;;;8.30;;
51296;SDS011;37380;45.186;9.792;2023-06-10T02:21:10;9.68;;;8.63;;
51296;SDS011;37380;45.186;9.792;2023-06-10T02:23:37;11.30;;;10.23;;
51296;SDS011;37380;45.186;9.792;2023-06-10T02:26:04;16.30;;;10.75;;
51296;SDS011;37380;45.186;9.792;2023-06-10T02:28:31;13.15;;;10.05;;
51296;SDS011;37380;45.186;9.792;2023-06-10T02:30:58;14.63;;;9.90;;
51296;SDS011;37380;45.186;9.792;2023-06-10T02:33:26;10.20;;;9.25;;
51296;SDS011;37380;45.186;9.792;2023-06-10T02:35:54;15.13;;;9.70;;
51296;SDS011;37380;45.186;9.792;2023-06-10T02:38:23;12.45;;;9.68;;
51296;SDS011;37380;45.186;9.792;2023-06-10T02:40:50;17.80;;;9.57;;
51296;SDS011;37380;45.186;9.792;2023-06-10T02:43:24;12.25;;;8.40;;
51296;SDS011;37380;45.186;9.792;2023-06-10T02:46:18;14.70;;;9.45;;
51296;SDS011;37380;45.186;9.792;2023-06-10T02:48:45;21.20;;;9.18;;
51296;SDS011;37380;45.186;9.792;2023-06-10T02:51:25;13.27;;;10.32;;
51296;SDS011;37380;45.186;9.792;2023-06-10T02:54:19;11.10;;;9.95;;
51296;SDS011;37380;45.186;9.792;2023-06-10T02:56:47;25.95;;;11.50;;
51296;SDS011;37380;45.186;9.792;2023-06-10T02:59:26;12.57;;;10.88;;
51296;SDS011;37380;45.186;9.792;2023-06-10T03:02:27;14.13;;;10.55;;
51296;SDS011;37380;45.186;9.792;2023-06-10T03:05:27;12.50;;;10.52;;
51296;SDS011;37380;45.186;9.792;2023-06-10T03:07:56;12.52;;;11.18;;
51296;SDS011;37380;45.186;9.792;2023-06-10T03:10:25;14.55;;;9.73;;
51296;SDS011;37380;45.186;9.792;2023-06-10T03:12:52;21.33;;;11.23;;
51296;SDS011;37380;45.186;9.792;2023-06-10T03:15:21;14.95;;;11.07;;
51296;SDS011;37380;45.186;9.792;2023-06-10T03:17:49;9.63;;;8.65;;
51296;SDS011;37380;45.186;9.792;2023-06-10T03:20:16;16.58;;;9.63;;
51296;SDS011;37380;45.186;9.792;2023-06-10T03:22:45;11.88;;;8.85;;
51296;SDS011;37380;45.186;9.792;2023-06-10T03:25:12;13.43;;;9.70;;
51296;SDS011;37380;45.186;9.792;2023-06-10T03:27:43;10.55;;;9.43;;
51296;SDS011;37380;45.186;9.792;2023-06-10T03:30:12;17.20;;;9.73;;
51296;SDS011;37380;45.186;9.792;2023-06-10T03:32:42;23.48;;;10.55;;
51296;SDS011;37380;45.186;9.792;2023-06-10T03:35:13;10.80;;;9.90;;
51296;SDS011;37380;45.186;9.792;2023-06-10T03:37:41;11.98;;;10.30;;
51296;SDS011;37380;45.186;9.792;2023-06-10T03:40:08;11.60;;;9.82;;
51296;SDS011;37380;45.186;9.792;2023-06-10T03:42:37;13.32;;;10.38;;
51296;SDS011;37380;45.186;9.792;2023-06-10T03:45:12;15.95;;;9.38;;
51296;SDS011;37380;45.186;9.792;2023-06-10T03:48:06;15.38;;;10.40;;
51296;SDS011;37380;45.186;9.792;2023-06-10T03:50:51;13.57;;;11.00;;
51296;SDS011;37380;45.186;9.792;2023-06-10T03:53:45;12.65;;;9.88;;
51296;SDS011;37380;45.186;9.792;2023-06-10T03:56:12;16.10;;;10.93;;
51296;SDS011;37380;45.186;9.792;2023-06-10T03:58:39;20.05;;;10.15;;
51296;SDS011;37380;45.186;9.792;2023-06-10T04:01:10;14.68;;;9.52;;
51296;SDS011;37380;45.186;9.792;2023-06-10T04:03:39;11.52;;;8.82;;
51296;SDS011;37380;45.186;9.792;2023-06-10T04:06:08;13.27;;;9.30;;
51296;SDS011;37380;45.186;9.792;2023-06-10T04:08:36;12.63;;;9.23;;
51296;SDS011;37380;45.186;9.792;2023-06-10T04:11:03;21.50;;;9.02;;
51296;SDS011;37380;45.186;9.792;2023-06-10T04:13:30;9.95;;;8.32;;
51296;SDS011;37380;45.186;9.792;2023-06-10T04:15:58;14.35;;;8.93;;
51296;SDS011;37380;45.186;9.792;2023-06-10T04:18:26;10.45;;;8.18;;
51296;SDS011;37380;45.186;9.792;2023-06-10T04:20:56;22.42;;;10.82;;
51296;SDS011;37380;45.186;9.792;2023-06-10T04:23:30;13.80;;;8.63;;
51296;SDS011;37380;45.186;9.792;2023-06-10T04:26:32;9.93;;;8.70;;
51296;SDS011;37380;45.186;9.792;2023-06-10T04:29:20;13.68;;;9.25;;
51296;SDS011;37380;45.186;9.792;2023-06-10T04:31:47;10.32;;;8.35;;
51296;SDS011;37380;45.186;9.792;2023-06-10T04:34:16;10.68;;;9.45;;
51296;SDS011;37380;45.186;9.792;2023-06-10T04:36:43;13.48;;;9.38;;
51296;SDS011;37380;45.186;9.792;2023-06-10T04:39:10;12.43;;;9.30;;
51296;SDS011;37380;45.186;9.792;2023-06-10T04:41:38;12.95;;;9.60;;
51296;SDS011;37380;45.186;9.792;2023-06-10T04:44:14;10.63;;;9.07;;
51296;SDS011;37380;45.186;9.792;2023-06-10T04:47:08;16.50;;;9.20;;
51296;SDS011;37380;45.186;9.792;2023-06-10T04:49:42;12.88;;;8.80;;
51296;SDS011;37380;45.186;9.792;2023-06-10T04:52:36;16.52;;;7.97;;
51296;SDS011;37380;45.186;9.792;2023-06-10T04:55:04;9.88;;;8.38;;
51296;SDS011;37380;45.186;9.792;2023-06-10T04:57:31;12.13;;;7.97;;
51296;SDS011;37380;45.186;9.792;2023-06-10T04:59:58;10.57;;;9.68;;
51296;SDS011;37380;45.186;9.792;2023-06-10T05:02:32;10.90;;;9.00;;
51296;SDS011;37380;45.186;9.792;2023-06-10T05:05:26;15.52;;;8.65;;
51296;SDS011;37380;45.186;9.792;2023-06-10T05:07:53;14.45;;;8.93;;
51296;SDS011;37380;45.186;9.792;2023-06-10T05:10:20;15.13;;;8.85;;
51296;SDS011;37380;45.186;9.792;2023-06-10T05:12:47;10.57;;;8.02;;
51296;SDS011;37380;45.186;9.792;2023-06-10T05:15:14;13.30;;;8.85;;
51296;SDS011;37380;45.186;9.792;2023-06-10T05:17:41;9.38;;;8.18;;
51296;SDS011;37380;45.186;9.792;2023-06-10T05:20:08;10.02;;;8.98;;
51296;SDS011;37380;45.186;9.792;2023-06-10T05:22:36;9.80;;;8.85;;
51296;SDS011;37380;45.186;9.792;2023-06-10T05:25:09;9.80;;;8.45;;
51296;SDS011;37380;45.186;9.792;2023-06-10T05:28:10;11.75;;;9.25;;
51296;SDS011;37380;45.186;9.792;2023-06-10T05:31:04;11.25;;;8.85;;
51296;SDS011;37380;45.186;9.792;2023-06-10T05:33:31;11.95;;;9.52;;
51296;SDS011;37380;45.186;9.792;2023-06-10T05:35:58;11.32;;;10.15;;
51296;SDS011;37380;45.186;9.792;2023-06-10T05:38:26;13.55;;;9.40;;
51296;SDS011;37380;45.186;9.792;2023-06-10T05:40:53;14.45;;;9.60;;
51296;SDS011;37380;45.186;9.792;2023-06-10T05:43:26;12.18;;;9.68;;
51296;SDS011;37380;45.186;9.792;2023-06-10T05:46:20;9.85;;;8.73;;
51296;SDS011;37380;45.186;9.792;2023-06-10T05:48:47;15.00;;;10.00;;
51296;SDS011;37380;45.186;9.792;2023-06-10T05:51:21;10.18;;;9.20;;
51296;SDS011;37380;45.186;9.792;2023-06-10T05:54:17;12.00;;;10.07;;
51296;SDS011;37380;45.186;9.792;2023-06-10T05:56:44;14.90;;;9.30;;
51296;SDS011;37380;45.186;9.792;2023-06-10T05:59:11;11.88;;;8.32;;
51296;SDS011;37380;45.186;9.792;2023-06-10T06:01:38;20.10;;;9.23;;
51296;SDS011;37380;45.186;9.792;2023-06-10T06:04:06;10.18;;;9.18;;
51296;SDS011;37380;45.186;9.792;2023-06-10T06:06:33;18.73;;;9.02;;
51296;SDS011;37380;45.186;9.792;2023-06-10T06:09:01;11.63;;;8.57;;
51296;SDS011;37380;45.186;9.792;2023-06-10T06:11:29;9.75;;;8.60;;
51296;SDS011;37380;45.186;9.792;2023-06-10T06:13:56;14.45;;;9.98;;
51296;SDS011;37380;45.186;9.792;2023-06-10T06:16:23;11.43;;;8.40;;
51296;SDS011;37380;45.186;9.792;2023-06-10T06:18:51;13.57;;;8.63;;
51296;SDS011;37380;45.186;9.792;2023-06-10T06:21:18;10.68;;;8.73;;
51296;SDS011;37380;45.186;9.792;2023-06-10T06:23:45;11.40;;;8.48;;
51296;SDS011;37380;45.186;9.792;2023-06-10T06:26:19;10.35;;;8.23;;
51296;SDS011;37380;45.186;9.792;2023-06-10T06:29:20;14.50;;;8.52;;
51296;SDS011;37380;45.186;9.792;2023-06-10T06:32:16;13.30;;;8.40;;
51296;SDS011;37380;45.186;9.792;2023-06-10T06:34:43;8.60;;;7.78;;
51296;SDS011;37380;45.186;9.792;2023-06-10T06:37:10;12.85;;;8.55;;
51296;SDS011;37380;45.186;9.792;2023-06-10T06:39:41;14.32;;;8.82;;
51296;SDS011;37380;45.186;9.792;2023-06-10T06:42:08;9.77;;;8.27;;
51296;SDS011;37380;45.186;9.792;2023-06-10T06:45:10;15.15;;;9.00;;
51296;SDS011;37380;45.186;9.792;2023-06-10T06:47:38;13.75;;;9.30;;
51296;SDS011;37380;45.186;9.792;2023-06-10T06:50:12;10.95;;;7.72;;
51296;SDS011;37380;45.186;9.792;2023-06-10T06:53:06;9.60;;;8.23;;
51296;SDS011;37380;45.186;9.792;2023-06-10T06:55:33;9.60;;;8.77;;
51296;SDS011;37380;45.186;9.792;2023-06-10T06:58:07;11.88;;;8.77;;
51296;SDS011;37380;45.186;9.792;2023-06-10T07:01:08;15.63;;;8.20;;
51296;SDS011;37380;45.186;9.792;2023-06-10T07:04:09;14.93;;;10.07;;
51296;SDS011;37380;45.186;9.792;2023-06-10T07:07:04;15.60;;;9.73;;
51296;SDS011;37380;45.186;9.792;2023-06-10T07:09:31;10.05;;;8.75;;
51296;SDS011;37380;45.186;9.792;2023-06-10T07:11:58;14.13;;;9.82;;
51296;SDS011;37380;45.186;9.792;2023-06-10T07:14:25;20.73;;;10.43;;
51296;SDS011;37380;45.186;9.792;2023-06-10T07:16:52;12.00;;;10.23;;
51296;SDS011;37380;45.186;9.792;2023-06-10T07:19:20;11.23;;;10.13;;
51296;SDS011;37380;45.186;9.792;2023-06-10T07:21:46;21.38;;;10.18;;
51296;SDS011;37380;45.186;9.792;2023-06-10T07:24:20;21.63;;;9.75;;
51296;SDS011;37380;45.186;9.792;2023-06-10T07:27:14;10.38;;;8.95;;
51296;SDS011;37380;45.186;9.792;2023-06-10T07:29:41;15.15;;;11.05;;
51296;SDS011;37380;45.186;9.792;2023-06-10T07:32:08;13.00;;;9.27;;
51296;SDS011;37380;45.186;9.792;2023-06-10T07:34:42;35.90;;;10.63;;
51296;SDS011;37380;45.186;9.792;2023-06-10T07:37:43;11.55;;;8.13;;
51296;SDS011;37380;45.186;9.792;2023-06-10T07:40:37;11.57;;;9.18;;
51296;SDS011;37380;45.186;9.792;2023-06-10T07:43:04;15.80;;;8.57;;
51296;SDS011;37380;45.186;9.792;2023-06-10T07:45:41;19.05;;;8.32;;
51296;SDS011;37380;45.186;9.792;2023-06-10T07:48:42;12.70;;;7.45;;
51296;SDS011;37380;45.186;9.792;2023-06-10T07:51:43;17.67;;;7.90;;
51296;SDS011;37380;45.186;9.792;2023-06-10T07:54:37;12.82;;;8.55;;
51296;SDS011;37380;45.186;9.792;2023-06-10T07:57:04;20.42;;;7.50;;
51296;SDS011;37380;45.186;9.792;2023-06-10T07:59:41;14.48;;;7.70;;
51296;SDS011;37380;45.186;9.792;2023-06-10T08:02:44;10.23;;;7.43;;
51296;SDS011;37380;45.186;9.792;2023-06-10T08:05:11;10.68;;;6.82;;
51296;SDS011;37380;45.186;9.792;2023-06-10T08:07:39;7.78;;;7.00;;
51296;SDS011;37380;45.186;9.792;2023-06-10T08:10:08;7.90;;;6.72;;
51296;SDS011;37380;45.186;9.792;2023-06-10T08:12:36;11.35;;;6.22;;
51296;SDS011;37380;45.186;9.792;2023-06-10T08:15:03;7.97;;;7.18;;
51296;SDS011;37380;45.186;9.792;2023-06-10T08:17:31;9.35;;;6.68;;
51296;SDS011;37380;45.186;9.792;2023-06-10T08:19:58;8.70;;;7.60;;
51296;SDS011;37380;45.186;9.792;2023-06-10T08:22:25;6.35;;;5.80;;
51296;SDS011;37380;45.186;9.792;2023-06-10T08:24:52;6.07;;;4.85;;
51296;SDS011;37380;45.186;9.792;2023-06-10T08:27:20;9.60;;;5.22;;
51296;SDS011;37380;45.186;9.792;2023-06-10T08:29:47;17.17;;;3.53;;
51296;SDS011;37380;45.186;9.792;2023-06-10T08:32:20;7.78;;;3.85;;
51296;SDS011;37380;45.186;9.792;2023-06-10T08:35:14;4.28;;;3.10;;
51296;SDS011;37380;45.186;9.792;2023-06-10T08:37:41;29.00;;;5.70;;
51296;SDS011;37380;45.186;9.792;2023-06-10T08:40:08;24.30;;;5.10;;
51296;SDS011;37380;45.186;9.792;2023-06-10T08:42:46;8.32;;;3.75;;
51296;SDS011;37380;45.186;9.792;2023-06-10T08:45:53;16.20;;;5.57;;
51296;SDS011;37380;45.186;9.792;2023-06-10T08:49:02;14.55;;;5.95;;
51296;SDS011;37380;45.186;9.792;2023-06-10T08:51:38;15.73;;;6.07;;
51296;SDS011;37380;45.186;9.792;2023-06-10T08:54:34;13.88;;;5.07;;
51296;SDS011;37380;45.186;9.792;2023-06-10T08:57:11;16.65;;;5.93;;
51296;SDS011;37380;45.186;9.792;2023-06-10T09:00:15;5.03;;;4.32;;
51296;SDS011;37380;45.186;9.792;2023-06-10T09:03:09;5.22;;;4.47;;
51296;SDS011;37380;45.186;9.792;2023-06-10T09:05:43;6.78;;;4.35;;
51296;SDS011;37380;45.186;9.792;2023-06-10T09:08:37;11.15;;;5.57;;
51296;SDS011;37380;45.186;9.792;2023-06-10T09:11:06;14.18;;;4.63;;
51296;SDS011;37380;45.186;9.792;2023-06-10T09:13:33;8.70;;;5.20;;
51296;SDS011;37380;45.186;9.792;2023-06-10T09:16:00;14.90;;;6.57;;
51296;SDS011;37380;45.186;9.792;2023-06-10T09:18:29;10.35;;;4.10;;
51296;SDS011;37380;45.186;9.792;2023-06-10T09:20:57;17.67;;;4.25;;
51296;SDS011;37380;45.186;9.792;2023-06-10T09:23:24;12.18;;;4.03;;
51296;SDS011;37380;45.186;9.792;2023-06-10T09:25:56;10.15;;;4.38;;
51296;SDS011;37380;45.186;9.792;2023-06-10T09:28:24;8.88;;;4.22;;
51296;SDS011;37380;45.186;9.792;2023-06-10T09:31:01;4.53;;;3.47;;
51296;SDS011;37380;45.186;9.792;2023-06-10T09:33:32;63.45;;;10.90;;
51296;SDS011;37380;45.186;9.792;2023-06-10T09:36:03;5.80;;;3.97;;
51296;SDS011;37380;45.186;9.792;2023-06-10T09:38:31;11.00;;;4.05;;
51296;SDS011;37380;45.186;9.792;2023-06-10T09:41:05;4.38;;;2.85;;
51296;SDS011;37380;45.186;9.792;2023-06-10T09:44:01;4.60;;;2.72;;
51296;SDS011;37380;45.186;9.792;2023-06-10T09:46:35;13.25;;;3.03;;
51296;SDS011;37380;45.186;9.792;2023-06-10T09:49:02;14.10;;;3.67;;
51296;SDS011;37380;45.186;9.792;2023-06-10T09:51:36;15.57;;;3.33;;
51296;SDS011;37380;45.186;9.792;2023-06-10T09:54:37;5.05;;;2.05;;
51296;SDS011;37380;45.186;9.792;2023-06-10T09:57:32;3.53;;;1.90;;
51296;SDS011;37380;45.186;9.792;2023-06-10T10:00:14;2.22;;;1.95;;
51296;SDS011;37380;45.186;9.792;2023-06-10T10:03:08;7.00;;;2.30;;
51296;SDS011;37380;45.186;9.792;2023-06-10T10:05:35;3.60;;;1.80;;
51296;SDS011;37380;45.186;9.792;2023-06-10T10:08:03;5.72;;;2.53;;
51296;SDS011;37380;45.186;9.792;2023-06-10T10:10:30;3.03;;;1.83;;
51296;SDS011;37380;45.186;9.792;2023-06-10T10:12:57;7.32;;;2.47;;
51296;SDS011;37380;45.186;9.792;2023-06-10T10:15:27;3.65;;;2.55;;
51296;SDS011;37380;45.186;9.792;2023-06-10T10:18:01;3.67;;;2.22;;
51296;SDS011;37380;45.186;9.792;2023-06-10T10:20:31;8.65;;;3.85;;
51296;SDS011;37380;45.186;9.792;2023-06-10T10:23:02;6.47;;;3.17;;
51296;SDS011;37380;45.186;9.792;2023-06-10T10:25:40;6.18;;;3.70;;
51296;SDS011;37380;45.186;9.792;2023-06-10T10:28:12;11.55;;;3.50;;
51296;SDS011;37380;45.186;9.792;2023-06-10T10:30:40;3.88;;;2.72;;
51296;SDS011;37380;45.186;9.792;2023-06-10T10:33:20;8.15;;;3.30;;
51296;SDS011;37380;45.186;9.792;2023-06-10T10:35:50;4.38;;;3.60;;
51296;SDS011;37380;45.186;9.792;2023-06-10T10:38:18;6.18;;;3.38;;
51296;SDS011;37380;45.186;9.792;2023-06-10T10:40:46;5.30;;;2.83;;
51296;SDS011;37380;45.186;9.792;2023-06-10T10:43:14;10.07;;;2.53;;
51296;SDS011;37380;45.186;9.792;2023-06-10T10:45:45;7.50;;;2.10;;
51296;SDS011;37380;45.186;9.792;2023-06-10T10:48:13;5.35;;;1.85;;
51296;SDS011;37380;45.186;9.792;2023-06-10T10:50:55;8.05;;;2.30;;
51296;SDS011;37380;45.186;9.792;2023-06-10T10:54:10;7.03;;;2.15;;
51296;SDS011;37380;45.186;9.792;2023-06-10T11:02:53;4.53;;;2.22;;
51296;SDS011;37380;45.186;9.792;2023-06-10T11:05:50;5.03;;;2.08;;
51296;SDS011;37380;45.186;9.792;2023-06-10T11:11:00;4.00;;;2.72;;
51296;SDS011;37380;45.186;9.792;2023-06-10T11:13:27;2.70;;;2.50;;
51296;SDS011;37380;45.186;9.792;2023-06-10T11:15:57;3.70;;;2.60;;
51296;SDS011;37380;45.186;9.792;2023-06-10T11:18:40;4.82;;;2.92;;
51296;SDS011;37380;45.186;9.792;2023-06-10T11:21:08;2.92;;;2.63;;
51296;SDS011;37380;45.186;9.792;2023-06-10T11:23:39;5.43;;;2.35;;
51296;SDS011;37380;45.186;9.792;2023-06-10T11:31:33;3.90;;;2.40;;
51296;SDS011;37380;45.186;9.792;2023-06-10T11:34:11;5.95;;;2.83;;
51296;SDS011;37380;45.186;9.792;2023-06-10T11:36:42;6.43;;;2.60;;
51296;SDS011;37380;45.186;9.792;2023-06-10T11:39:19;4.07;;;1.75;;
51296;SDS011;37380;45.186;9.792;2023-06-10T11:42:16;2.10;;;1.38;;
51296;SDS011;37380;45.186;9.792;2023-06-10T11:44:48;5.57;;;1.67;;
51296;SDS011;37380;45.186;9.792;2023-06-10T11:47:19;5.35;;;2.33;;
51296;SDS011;37380;45.186;9.792;2023-06-10T11:49:57;4.35;;;2.17;;
51296;SDS011;37380;45.186;9.792;2023-06-10T11:52:57;4.57;;;1.88;;
51296;SDS011;37380;45.186;9.792;2023-06-10T11:58:18;3.20;;;1.70;;
51296;SDS011;37380;45.186;9.792;2023-06-10T12:00:47;4.68;;;2.38;;
51296;SDS011;37380;45.186;9.792;2023-06-10T12:03:15;3.75;;;1.58;;
51296;SDS011;37380;45.186;9.792;2023-06-10T12:08:22;7.07;;;2.08;;
51296;SDS011;37380;45.186;9.792;2023-06-10T12:10:56;7.97;;;2.70;;
51296;SDS011;37380;45.186;9.792;2023-06-10T12:13:58;4.85;;;2.13;;
51296;SDS011;37380;45.186;9.792;2023-06-10T12:16:52;9.20;;;2.80;;
51296;SDS011;37380;45.186;9.792;2023-06-10T12:19:19;3.80;;;2.22;;
51296;SDS011;37380;45.186;9.792;2023-06-10T12:21:47;4.68;;;2.22;;
51296;SDS011;37380;45.186;9.792;2023-06-10T12:24:14;5.28;;;3.03;;
51296;SDS011;37380;45.186;9.792;2023-06-10T12:26:42;8.25;;;2.28;;
51296;SDS011;37380;45.186;9.792;2023-06-10T12:29:21;5.00;;;2.47;;
51296;SDS011;37380;45.186;9.792;2023-06-10T12:32:16;7.18;;;2.42;;
51296;SDS011;37380;45.186;9.792;2023-06-10T12:34:45;6.05;;;2.85;;
51296;SDS011;37380;45.186;9.792;2023-06-10T12:37:12;8.73;;;2.60;;
51296;SDS011;37380;45.186;9.792;2023-06-10T12:42:21;6.47;;;2.20;;
51296;SDS011;37380;45.186;9.792;2023-06-10T12:44:52;6.22;;;2.45;;
51296;SDS011;37380;45.186;9.792;2023-06-10T12:47:21;5.55;;;3.30;;
51296;SDS011;37380;45.186;9.792;2023-06-10T12:50:04;2.85;;;2.55;;
51296;SDS011;37380;45.186;9.792;2023-06-10T12:53:06;4.97;;;2.88;;
51296;SDS011;37380;45.186;9.792;2023-06-10T12:56:01;6.75;;;2.63;;
51296;SDS011;37380;45.186;9.792;2023-06-10T12:58:35;8.13;;;2.45;;
51296;SDS011;37380;45.186;9.792;2023-06-10T13:01:37;8.85;;;2.17;;
51296;SDS011;37380;45.186;9.792;2023-06-10T13:04:31;12.07;;;2.22;;
51296;SDS011;37380;45.186;9.792;2023-06-10T13:06:59;10.90;;;2.58;;
51296;SDS011;37380;45.186;9.792;2023-06-10T13:09:32;6.63;;;2.95;;
51296;SDS011;37380;45.186;9.792;2023-06-10T13:12:27;7.63;;;2.88;;
51296;SDS011;37380;45.186;9.792;2023-06-10T13:15:12;5.82;;;3.13;;
51296;SDS011;37380;45.186;9.792;2023-06-10T13:17:42;5.82;;;3.25;;
51296;SDS011;37380;45.186;9.792;2023-06-10T13:20:10;4.65;;;2.50;;
51296;SDS011;37380;45.186;9.792;2023-06-10T13:22:37;3.17;;;2.65;;
51296;SDS011;37380;45.186;9.792;2023-06-10T13:25:04;9.02;;;4.07;;
51296;SDS011;37380;45.186;9.792;2023-06-10T13:27:41;7.65;;;3.47;;
51296;SDS011;37380;45.186;9.792;2023-06-10T13:30:42;7.70;;;2.47;;
51296;SDS011;37380;45.186;9.792;2023-06-10T13:33:37;10.02;;;3.22;;
51296;SDS011;37380;45.186;9.792;2023-06-10T13:36:05;8.35;;;3.30;;
51296;SDS011;37380;45.186;9.792;2023-06-10T13:38:38;2.60;;;1.73;;
51296;SDS011;37380;45.186;9.792;2023-06-10T13:41:41;2.97;;;2.13;;
51296;SDS011;37380;45.186;9.792;2023-06-10T13:44:34;8.18;;;2.95;;
51296;SDS011;37380;45.186;9.792;2023-06-10T13:47:03;10.82;;;3.13;;
51296;SDS011;37380;45.186;9.792;2023-06-10T13:49:36;3.75;;;2.20;;
51296;SDS011;37380;45.186;9.792;2023-06-10T13:52:37;3.95;;;2.67;;
51296;SDS011;37380;45.186;9.792;2023-06-10T13:55:04;13.90;;;2.80;;
51296;SDS011;37380;45.186;9.792;2023-06-10T13:57:32;3.15;;;2.63;;
51296;SDS011;37380;45.186;9.792;2023-06-10T13:59:59;5.93;;;2.45;;
51296;SDS011;37380;45.186;9.792;2023-06-10T14:02:26;3.15;;;2.58;;
51296;SDS011;37380;45.186;9.792;2023-06-10T14:04:53;4.20;;;2.13;;
51296;SDS011;37380;45.186;9.792;2023-06-10T14:07:21;9.70;;;3.03;;
51296;SDS011;37380;45.186;9.792;2023-06-10T14:09:54;9.70;;;3.05;;
51296;SDS011;37380;45.186;9.792;2023-06-10T14:12:48;7.18;;;2.78;;
51296;SDS011;37380;45.186;9.792;2023-06-10T14:15:16;3.65;;;2.08;;
51296;SDS011;37380;45.186;9.792;2023-06-10T14:17:43;7.78;;;3.20;;
51296;SDS011;37380;45.186;9.792;2023-06-10T14:20:11;7.20;;;2.35;;
51296;SDS011;37380;45.186;9.792;2023-06-10T14:22:38;7.60;;;2.20;;
51296;SDS011;37380;45.186;9.792;2023-06-10T14:25:05;5.55;;;2.17;;
51296;SDS011;37380;45.186;9.792;2023-06-10T14:27:33;7.57;;;2.20;;
51296;SDS011;37380;45.186;9.792;2023-06-10T14:30:07;3.05;;;2.00;;
51296;SDS011;37380;45.186;9.792;2023-06-10T14:33:08;3.15;;;1.65;;
51296;SDS011;37380;45.186;9.792;2023-06-10T14:36:03;5.00;;;2.53;;
51296;SDS011;37380;45.186;9.792;2023-06-10T14:38:36;6.22;;;2.25;;
51296;SDS011;37380;45.186;9.792;2023-06-10T14:41:37;4.22;;;2.58;;
51296;SDS011;37380;45.186;9.792;2023-06-10T14:44:38;10.55;;;1.90;;
51296;SDS011;37380;45.186;9.792;2023-06-10T14:47:32;2.20;;;1.90;;
51296;SDS011;37380;45.186;9.792;2023-06-10T14:50:06;6.25;;;2.00;;
51296;SDS011;37380;45.186;9.792;2023-06-10T14:53:07;8.10;;;2.25;;
51296;SDS011;37380;45.186;9.792;2023-06-10T14:56:01;5.80;;;2.25;;
51296;SDS011;37380;45.186;9.792;2023-06-10T14:58:28;10.45;;;2.03;;
51296;SDS011;37380;45.186;9.792;2023-06-10T15:00:55;7.07;;;2.33;;
51296;SDS011;37380;45.186;9.792;2023-06-10T15:03:23;9.63;;;2.35;;
51296;SDS011;37380;45.186;9.792;2023-06-10T15:05:50;6.15;;;2.28;;
51296;SDS011;37380;45.186;9.792;2023-06-10T15:08:23;5.18;;;2.05;;
51296;SDS011;37380;45.186;9.792;2023-06-10T15:11:24;6.97;;;2.92;;
51296;SDS011;37380;45.186;9.792;2023-06-10T15:13:58;5.65;;;2.50;;
51296;SDS011;37380;45.186;9.792;2023-06-10T15:16:53;13.00;;;3.25;;
51296;SDS011;37380;45.186;9.792;2023-06-10T15:19:20;12.73;;;2.80;;
51296;SDS011;37380;45.186;9.792;2023-06-10T15:21:47;9.32;;;2.75;;
51296;SDS011;37380;45.186;9.792;2023-06-10T15:24:14;16.40;;;2.85;;
51296;SDS011;37380;45.186;9.792;2023-06-10T15:26:47;3.45;;;2.17;;
51296;SDS011;37380;45.186;9.792;2023-06-10T15:29:48;14.80;;;2.85;;
51296;SDS011;37380;45.186;9.792;2023-06-10T15:32:49;13.25;;;3.13;;
51296;SDS011;37380;45.186;9.792;2023-06-10T15:35:44;6.60;;;2.53;;
51296;SDS011;37380;45.186;9.792;2023-06-10T15:38:17;2.33;;;1.77;;
51296;SDS011;37380;45.186;9.792;2023-06-10T15:41:05;6.00;;;2.92;;
51296;SDS011;37380;45.186;9.792;2023-06-10T15:43:38;3.35;;;2.67;;
51296;SDS011;37380;45.186;9.792;2023-06-10T15:46:33;5.40;;;2.33;;
51296;SDS011;37380;45.186;9.792;2023-06-10T15:49:01;8.55;;;2.33;;
51296;SDS011;37380;45.186;9.792;2023-06-10T15:55:09;4.30;;;2.45;;
51296;SDS011;37380;45.186;9.792;2023-06-10T15:58:10;5.25;;;2.55;;